7TS3 weather

Sunny V Ranch Airport
Sisterdale, Texas, United States

Public forecast

Using degrees Fahrenheit for public forecast. Weather courtesy of forecast.io.

Closest aviation weather report (METAR) to Sunny V Ranch Airport

Closest report is Boerne Stage Field, 12.5 nm (23.2 km) S. Retrieved 2019/11/18 13:35 UTC (0 seconds ago):

K5C1 181335Z AUTO 00000KT 10SM CLR 04/04 A3004 RMK AO1

Closest aviation forecast (TAF) to Sunny V Ranch Airport

Closest forecast is San Antonio International Airport, 26.3 nm (48.6 km) SSE. Retrieved 2019/11/18 12:22 UTC (1 hour ago):

TAF KSAT 181120Z 1812/1918 29006KT P6SM BKN250